sensor_id;sensor_type;location;lat;lon;timestamp;P1;durP1;ratioP1;P2;durP2;ratioP2
26686;SDS011;14298;50.900;4.648;2023-04-25T00:02:03;1.70;;;1.60;;
26686;SDS011;14298;50.900;4.648;2023-04-25T00:04:30;2.63;;;1.50;;
26686;SDS011;14298;50.900;4.648;2023-04-25T00:07:00;2.23;;;1.93;;
26686;SDS011;14298;50.900;4.648;2023-04-25T00:09:28;13.73;;;2.20;;
26686;SDS011;14298;50.900;4.648;2023-04-25T00:11:56;3.60;;;2.87;;
26686;SDS011;14298;50.900;4.648;2023-04-25T00:14:24;8.53;;;2.60;;
26686;SDS011;14298;50.900;4.648;2023-04-25T00:16:52;2.57;;;1.83;;
26686;SDS011;14298;50.900;4.648;2023-04-25T00:19:21;2.77;;;2.43;;
26686;SDS011;14298;50.900;4.648;2023-04-25T00:21:49;16.07;;;2.50;;
26686;SDS011;14298;50.900;4.648;2023-04-25T00:24:17;4.57;;;2.63;;
26686;SDS011;14298;50.900;4.648;2023-04-25T00:26:45;3.03;;;2.30;;
26686;SDS011;14298;50.900;4.648;2023-04-25T00:29:13;2.93;;;2.57;;
26686;SDS011;14298;50.900;4.648;2023-04-25T00:31:41;1.80;;;1.57;;
26686;SDS011;14298;50.900;4.648;2023-04-25T00:34:08;2.50;;;2.27;;
26686;SDS011;14298;50.900;4.648;2023-04-25T00:36:37;5.93;;;3.43;;
26686;SDS011;14298;50.900;4.648;2023-04-25T00:39:05;3.00;;;2.00;;
26686;SDS011;14298;50.900;4.648;2023-04-25T00:41:33;2.53;;;1.93;;
26686;SDS011;14298;50.900;4.648;2023-04-25T00:44:01;1.97;;;1.83;;
26686;SDS011;14298;50.900;4.648;2023-04-25T00:46:30;4.87;;;2.60;;
26686;SDS011;14298;50.900;4.648;2023-04-25T00:48:58;2.17;;;1.53;;
26686;SDS011;14298;50.900;4.648;2023-04-25T00:51:26;2.13;;;1.97;;
26686;SDS011;14298;50.900;4.648;2023-04-25T00:53:54;1.77;;;1.67;;
26686;SDS011;14298;50.900;4.648;2023-04-25T00:56:23;2.10;;;2.00;;
26686;SDS011;14298;50.900;4.648;2023-04-25T00:58:52;3.03;;;2.03;;
26686;SDS011;14298;50.900;4.648;2023-04-25T01:01:22;3.77;;;2.13;;
26686;SDS011;14298;50.900;4.648;2023-04-25T01:03:50;2.77;;;2.50;;
26686;SDS011;14298;50.900;4.648;2023-04-25T01:06:19;1.40;;;1.30;;
26686;SDS011;14298;50.900;4.648;2023-04-25T01:08:47;5.10;;;2.37;;
26686;SDS011;14298;50.900;4.648;2023-04-25T01:11:15;3.27;;;2.60;;
26686;SDS011;14298;50.900;4.648;2023-04-25T01:13:43;5.73;;;2.47;;
26686;SDS011;14298;50.900;4.648;2023-04-25T01:16:11;3.00;;;1.67;;
26686;SDS011;14298;50.900;4.648;2023-04-25T01:18:39;3.67;;;3.07;;
26686;SDS011;14298;50.900;4.648;2023-04-25T01:23:56;13.40;;;1.70;;
26686;SDS011;14298;50.900;4.648;2023-04-25T01:26:24;3.03;;;2.13;;
26686;SDS011;14298;50.900;4.648;2023-04-25T01:28:52;3.80;;;1.73;;
26686;SDS011;14298;50.900;4.648;2023-04-25T01:31:21;1.47;;;1.30;;
26686;SDS011;14298;50.900;4.648;2023-04-25T01:33:49;1.77;;;1.67;;
26686;SDS011;14298;50.900;4.648;2023-04-25T01:36:17;2.10;;;1.90;;
26686;SDS011;14298;50.900;4.648;2023-04-25T01:38:45;3.20;;;1.97;;
26686;SDS011;14298;50.900;4.648;2023-04-25T01:41:14;4.73;;;2.03;;
26686;SDS011;14298;50.900;4.648;2023-04-25T01:43:42;3.30;;;1.53;;
26686;SDS011;14298;50.900;4.648;2023-04-25T01:46:10;3.07;;;1.80;;
26686;SDS011;14298;50.900;4.648;2023-04-25T01:48:38;2.23;;;2.07;;
26686;SDS011;14298;50.900;4.648;2023-04-25T01:51:06;2.70;;;1.87;;
26686;SDS011;14298;50.900;4.648;2023-04-25T01:53:34;2.40;;;2.20;;
26686;SDS011;14298;50.900;4.648;2023-04-25T01:56:02;1.20;;;1.10;;
26686;SDS011;14298;50.900;4.648;2023-04-25T01:58:30;6.17;;;2.13;;
26686;SDS011;14298;50.900;4.648;2023-04-25T02:00:58;2.10;;;1.87;;
26686;SDS011;14298;50.900;4.648;2023-04-25T02:03:26;2.30;;;2.17;;
26686;SDS011;14298;50.900;4.648;2023-04-25T02:05:54;5.63;;;2.47;;
26686;SDS011;14298;50.900;4.648;2023-04-25T02:08:22;2.37;;;2.00;;
26686;SDS011;14298;50.900;4.648;2023-04-25T02:10:52;6.33;;;2.30;;
26686;SDS011;14298;50.900;4.648;2023-04-25T02:13:20;4.20;;;2.77;;
26686;SDS011;14298;50.900;4.648;2023-04-25T02:15:48;1.73;;;1.63;;
26686;SDS011;14298;50.900;4.648;2023-04-25T02:18:16;3.23;;;1.53;;
26686;SDS011;14298;50.900;4.648;2023-04-25T02:20:45;2.13;;;1.77;;
26686;SDS011;14298;50.900;4.648;2023-04-25T02:23:13;1.80;;;1.70;;
26686;SDS011;14298;50.900;4.648;2023-04-25T02:25:42;3.60;;;2.13;;
26686;SDS011;14298;50.900;4.648;2023-04-25T02:28:10;6.93;;;2.93;;
26686;SDS011;14298;50.900;4.648;2023-04-25T02:30:38;4.90;;;1.80;;
26686;SDS011;14298;50.900;4.648;2023-04-25T02:33:06;2.97;;;2.37;;
26686;SDS011;14298;50.900;4.648;2023-04-25T02:35:34;2.60;;;2.20;;
26686;SDS011;14298;50.900;4.648;2023-04-25T02:38:02;3.30;;;2.43;;
26686;SDS011;14298;50.900;4.648;2023-04-25T02:40:30;2.97;;;1.70;;
26686;SDS011;14298;50.900;4.648;2023-04-25T02:42:58;5.10;;;2.43;;
26686;SDS011;14298;50.900;4.648;2023-04-25T02:45:26;1.43;;;1.37;;
26686;SDS011;14298;50.900;4.648;2023-04-25T02:47:54;7.90;;;2.63;;
26686;SDS011;14298;50.900;4.648;2023-04-25T02:50:22;4.90;;;2.33;;
26686;SDS011;14298;50.900;4.648;2023-04-25T02:52:50;1.87;;;1.77;;
26686;SDS011;14298;50.900;4.648;2023-04-25T02:55:18;2.50;;;2.30;;
26686;SDS011;14298;50.900;4.648;2023-04-25T02:57:46;2.73;;;2.23;;
26686;SDS011;14298;50.900;4.648;2023-04-25T03:00:14;1.93;;;1.83;;
26686;SDS011;14298;50.900;4.648;2023-04-25T03:02:42;8.07;;;2.73;;
26686;SDS011;14298;50.900;4.648;2023-04-25T03:05:10;6.73;;;3.57;;
26686;SDS011;14298;50.900;4.648;2023-04-25T03:07:38;8.13;;;2.30;;
26686;SDS011;14298;50.900;4.648;2023-04-25T03:10:07;4.10;;;2.87;;
26686;SDS011;14298;50.900;4.648;2023-04-25T03:12:35;4.53;;;2.07;;
26686;SDS011;14298;50.900;4.648;2023-04-25T03:15:03;4.80;;;2.07;;
26686;SDS011;14298;50.900;4.648;2023-04-25T03:17:31;5.60;;;2.90;;
26686;SDS011;14298;50.900;4.648;2023-04-25T03:19:59;8.30;;;2.40;;
26686;SDS011;14298;50.900;4.648;2023-04-25T03:22:27;1.97;;;1.87;;
26686;SDS011;14298;50.900;4.648;2023-04-25T03:24:55;2.70;;;2.17;;
26686;SDS011;14298;50.900;4.648;2023-04-25T03:27:23;3.53;;;1.97;;
26686;SDS011;14298;50.900;4.648;2023-04-25T03:29:51;2.00;;;1.13;;
26686;SDS011;14298;50.900;4.648;2023-04-25T03:32:19;9.63;;;1.37;;
26686;SDS011;14298;50.900;4.648;2023-04-25T03:34:47;4.17;;;2.47;;
26686;SDS011;14298;50.900;4.648;2023-04-25T03:37:15;5.47;;;1.47;;
26686;SDS011;14298;50.900;4.648;2023-04-25T03:39:43;2.47;;;1.80;;
26686;SDS011;14298;50.900;4.648;2023-04-25T03:42:11;0.90;;;0.90;;
26686;SDS011;14298;50.900;4.648;2023-04-25T03:44:39;9.50;;;2.80;;
26686;SDS011;14298;50.900;4.648;2023-04-25T03:47:07;2.13;;;1.80;;
26686;SDS011;14298;50.900;4.648;2023-04-25T03:49:35;2.87;;;2.67;;
26686;SDS011;14298;50.900;4.648;2023-04-25T03:52:03;5.20;;;2.63;;
26686;SDS011;14298;50.900;4.648;2023-04-25T03:54:31;1.90;;;1.80;;
26686;SDS011;14298;50.900;4.648;2023-04-25T03:56:59;2.63;;;2.43;;
26686;SDS011;14298;50.900;4.648;2023-04-25T03:59:27;1.27;;;1.27;;
26686;SDS011;14298;50.900;4.648;2023-04-25T04:01:55;2.10;;;1.97;;
26686;SDS011;14298;50.900;4.648;2023-04-25T04:04:23;2.27;;;1.50;;
26686;SDS011;14298;50.900;4.648;2023-04-25T04:06:51;1.43;;;1.33;;
26686;SDS011;14298;50.900;4.648;2023-04-25T04:09:19;3.67;;;2.50;;
26686;SDS011;14298;50.900;4.648;2023-04-25T04:11:47;4.73;;;2.13;;
26686;SDS011;14298;50.900;4.648;2023-04-25T04:14:15;6.23;;;2.90;;
26686;SDS011;14298;50.900;4.648;2023-04-25T04:16:43;3.23;;;1.87;;
26686;SDS011;14298;50.900;4.648;2023-04-25T04:19:12;3.87;;;2.27;;
26686;SDS011;14298;50.900;4.648;2023-04-25T04:21:39;3.33;;;1.30;;
26686;SDS011;14298;50.900;4.648;2023-04-25T04:24:07;2.27;;;2.00;;
26686;SDS011;14298;50.900;4.648;2023-04-25T04:26:37;2.00;;;1.70;;
26686;SDS011;14298;50.900;4.648;2023-04-25T04:29:05;1.83;;;1.60;;
26686;SDS011;14298;50.900;4.648;2023-04-25T04:31:34;1.63;;;1.53;;
26686;SDS011;14298;50.900;4.648;2023-04-25T04:34:02;5.43;;;3.33;;
26686;SDS011;14298;50.900;4.648;2023-04-25T04:36:31;3.77;;;2.07;;
26686;SDS011;14298;50.900;4.648;2023-04-25T04:41:47;1.60;;;1.50;;
26686;SDS011;14298;50.900;4.648;2023-04-25T04:44:15;1.43;;;1.33;;
26686;SDS011;14298;50.900;4.648;2023-04-25T04:46:43;2.77;;;1.60;;
26686;SDS011;14298;50.900;4.648;2023-04-25T04:49:11;2.00;;;1.67;;
26686;SDS011;14298;50.900;4.648;2023-04-25T04:51:40;2.53;;;1.63;;
26686;SDS011;14298;50.900;4.648;2023-04-25T04:54:10;2.63;;;1.83;;
26686;SDS011;14298;50.900;4.648;2023-04-25T04:56:38;8.17;;;1.67;;
26686;SDS011;14298;50.900;4.648;2023-04-25T04:59:06;4.53;;;1.60;;
26686;SDS011;14298;50.900;4.648;2023-04-25T05:01:34;5.20;;;1.83;;
26686;SDS011;14298;50.900;4.648;2023-04-25T05:04:05;3.80;;;1.77;;
26686;SDS011;14298;50.900;4.648;2023-04-25T05:06:33;8.40;;;3.00;;
26686;SDS011;14298;50.900;4.648;2023-04-25T05:09:01;4.47;;;2.50;;
26686;SDS011;14298;50.900;4.648;2023-04-25T05:11:29;5.30;;;1.63;;
26686;SDS011;14298;50.900;4.648;2023-04-25T05:13:57;3.07;;;1.63;;
26686;SDS011;14298;50.900;4.648;2023-04-25T05:16:25;2.53;;;1.50;;
26686;SDS011;14298;50.900;4.648;2023-04-25T05:18:53;4.00;;;2.03;;
26686;SDS011;14298;50.900;4.648;2023-04-25T05:21:21;1.97;;;1.87;;
26686;SDS011;14298;50.900;4.648;2023-04-25T05:23:49;4.17;;;2.57;;
26686;SDS011;14298;50.900;4.648;2023-04-25T05:26:17;2.57;;;1.93;;
26686;SDS011;14298;50.900;4.648;2023-04-25T05:28:45;1.27;;;1.27;;
26686;SDS011;14298;50.900;4.648;2023-04-25T05:31:13;2.13;;;1.93;;
26686;SDS011;14298;50.900;4.648;2023-04-25T05:33:41;1.10;;;1.10;;
26686;SDS011;14298;50.900;4.648;2023-04-25T05:36:09;1.07;;;1.07;;
26686;SDS011;14298;50.900;4.648;2023-04-25T05:38:37;1.90;;;1.67;;
26686;SDS011;14298;50.900;4.648;2023-04-25T05:41:05;5.90;;;2.30;;
26686;SDS011;14298;50.900;4.648;2023-04-25T05:43:34;3.30;;;2.03;;
26686;SDS011;14298;50.900;4.648;2023-04-25T05:46:02;1.60;;;1.50;;
26686;SDS011;14298;50.900;4.648;2023-04-25T05:48:30;3.20;;;2.00;;
26686;SDS011;14298;50.900;4.648;2023-04-25T05:50:58;13.93;;;2.20;;
26686;SDS011;14298;50.900;4.648;2023-04-25T05:53:26;1.17;;;1.07;;
26686;SDS011;14298;50.900;4.648;2023-04-25T05:55:54;1.97;;;1.87;;
26686;SDS011;14298;50.900;4.648;2023-04-25T05:58:22;1.60;;;1.50;;
26686;SDS011;14298;50.900;4.648;2023-04-25T06:00:50;3.00;;;1.43;;
26686;SDS011;14298;50.900;4.648;2023-04-25T06:03:18;1.10;;;1.10;;
26686;SDS011;14298;50.900;4.648;2023-04-25T06:05:47;2.73;;;1.83;;
26686;SDS011;14298;50.900;4.648;2023-04-25T06:08:15;2.83;;;1.87;;
26686;SDS011;14298;50.900;4.648;2023-04-25T06:10:43;5.10;;;2.50;;
26686;SDS011;14298;50.900;4.648;2023-04-25T06:13:11;4.90;;;1.97;;
26686;SDS011;14298;50.900;4.648;2023-04-25T06:15:38;2.67;;;2.03;;
26686;SDS011;14298;50.900;4.648;2023-04-25T06:18:07;7.07;;;2.17;;
26686;SDS011;14298;50.900;4.648;2023-04-25T06:20:35;2.20;;;2.00;;
26686;SDS011;14298;50.900;4.648;2023-04-25T06:23:02;4.57;;;2.83;;
26686;SDS011;14298;50.900;4.648;2023-04-25T06:25:30;2.77;;;2.43;;
26686;SDS011;14298;50.900;4.648;2023-04-25T06:27:58;2.50;;;2.20;;
26686;SDS011;14298;50.900;4.648;2023-04-25T06:30:26;5.03;;;3.23;;
26686;SDS011;14298;50.900;4.648;2023-04-25T06:32:54;2.97;;;2.13;;
26686;SDS011;14298;50.900;4.648;2023-04-25T06:35:22;6.93;;;2.23;;
26686;SDS011;14298;50.900;4.648;2023-04-25T06:37:50;4.07;;;2.93;;
26686;SDS011;14298;50.900;4.648;2023-04-25T06:40:18;2.97;;;1.70;;
26686;SDS011;14298;50.900;4.648;2023-04-25T06:42:46;2.33;;;1.97;;
26686;SDS011;14298;50.900;4.648;2023-04-25T06:45:14;4.03;;;2.77;;
26686;SDS011;14298;50.900;4.648;2023-04-25T06:47:42;10.00;;;1.90;;
26686;SDS011;14298;50.900;4.648;2023-04-25T06:50:10;1.77;;;1.67;;
26686;SDS011;14298;50.900;4.648;2023-04-25T06:52:38;1.33;;;1.23;;
26686;SDS011;14298;50.900;4.648;2023-04-25T06:55:07;8.90;;;3.00;;
26686;SDS011;14298;50.900;4.648;2023-04-25T06:57:35;4.13;;;2.40;;
26686;SDS011;14298;50.900;4.648;2023-04-25T07:00:03;4.77;;;2.17;;
26686;SDS011;14298;50.900;4.648;2023-04-25T07:02:33;2.53;;;1.57;;
26686;SDS011;14298;50.900;4.648;2023-04-25T07:05:02;2.83;;;2.07;;
26686;SDS011;14298;50.900;4.648;2023-04-25T07:07:30;9.13;;;3.30;;
26686;SDS011;14298;50.900;4.648;2023-04-25T07:09:58;1.43;;;1.40;;
26686;SDS011;14298;50.900;4.648;2023-04-25T07:12:27;9.70;;;2.60;;
26686;SDS011;14298;50.900;4.648;2023-04-25T07:14:55;3.57;;;2.23;;
26686;SDS011;14298;50.900;4.648;2023-04-25T07:17:23;2.73;;;2.33;;
26686;SDS011;14298;50.900;4.648;2023-04-25T07:19:51;2.17;;;1.67;;
26686;SDS011;14298;50.900;4.648;2023-04-25T07:22:19;1.63;;;1.10;;
26686;SDS011;14298;50.900;4.648;2023-04-25T07:24:47;2.07;;;1.10;;
26686;SDS011;14298;50.900;4.648;2023-04-25T07:27:15;2.37;;;1.80;;
26686;SDS011;14298;50.900;4.648;2023-04-25T07:29:43;3.47;;;2.10;;
26686;SDS011;14298;50.900;4.648;2023-04-25T07:32:11;6.90;;;1.70;;
26686;SDS011;14298;50.900;4.648;2023-04-25T07:34:40;5.47;;;2.20;;
26686;SDS011;14298;50.900;4.648;2023-04-25T07:37:08;4.73;;;1.43;;
26686;SDS011;14298;50.900;4.648;2023-04-25T07:39:36;1.50;;;1.40;;
26686;SDS011;14298;50.900;4.648;2023-04-25T07:42:04;1.93;;;1.50;;
26686;SDS011;14298;50.900;4.648;2023-04-25T07:44:34;2.77;;;2.07;;
26686;SDS011;14298;50.900;4.648;2023-04-25T07:47:09;1.20;;;1.20;;
26686;SDS011;14298;50.900;4.648;2023-04-25T07:49:37;13.50;;;2.03;;
26686;SDS011;14298;50.900;4.648;2023-04-25T07:52:06;4.03;;;2.20;;
26686;SDS011;14298;50.900;4.648;2023-04-25T07:54:34;5.80;;;2.00;;
26686;SDS011;14298;50.900;4.648;2023-04-25T07:57:02;2.13;;;1.60;;
26686;SDS011;14298;50.900;4.648;2023-04-25T07:59:30;5.07;;;1.70;;
26686;SDS011;14298;50.900;4.648;2023-04-25T08:01:58;4.10;;;1.93;;
26686;SDS011;14298;50.900;4.648;2023-04-25T08:04:26;2.53;;;1.70;;
26686;SDS011;14298;50.900;4.648;2023-04-25T08:06:54;2.97;;;1.63;;
26686;SDS011;14298;50.900;4.648;2023-04-25T08:09:22;5.83;;;2.57;;
26686;SDS011;14298;50.900;4.648;2023-04-25T08:11:50;1.97;;;1.77;;
26686;SDS011;14298;50.900;4.648;2023-04-25T08:14:18;9.47;;;2.17;;
26686;SDS011;14298;50.900;4.648;2023-04-25T08:16:48;1.33;;;1.23;;
26686;SDS011;14298;50.900;4.648;2023-04-25T08:19:16;2.83;;;1.80;;
26686;SDS011;14298;50.900;4.648;2023-04-25T08:21:44;1.70;;;1.37;;
26686;SDS011;14298;50.900;4.648;2023-04-25T08:24:12;3.03;;;2.73;;
26686;SDS011;14298;50.900;4.648;2023-04-25T08:26:40;2.83;;;0.87;;
26686;SDS011;14298;50.900;4.648;2023-04-25T08:29:08;2.10;;;1.30;;
26686;SDS011;14298;50.900;4.648;2023-04-25T08:31:36;1.30;;;1.20;;
26686;SDS011;14298;50.900;4.648;2023-04-25T08:34:04;1.07;;;1.07;;
26686;SDS011;14298;50.900;4.648;2023-04-25T08:36:32;3.53;;;1.60;;
26686;SDS011;14298;50.900;4.648;2023-04-25T08:39:00;1.87;;;1.77;;
26686;SDS011;14298;50.900;4.648;2023-04-25T08:41:28;10.83;;;2.00;;
26686;SDS011;14298;50.900;4.648;2023-04-25T08:43:56;1.77;;;1.67;;
26686;SDS011;14298;50.900;4.648;2023-04-25T08:46:27;3.40;;;1.30;;
26686;SDS011;14298;50.900;4.648;2023-04-25T08:48:56;4.93;;;1.47;;
26686;SDS011;14298;50.900;4.648;2023-04-25T08:51:25;2.87;;;1.73;;
26686;SDS011;14298;50.900;4.648;2023-04-25T08:53:54;1.80;;;1.00;;
26686;SDS011;14298;50.900;4.648;2023-04-25T08:56:23;1.67;;;1.57;;
26686;SDS011;14298;50.900;4.648;2023-04-25T08:58:55;1.07;;;1.03;;
26686;SDS011;14298;50.900;4.648;2023-04-25T09:01:23;0.70;;;0.70;;
26686;SDS011;14298;50.900;4.648;2023-04-25T09:03:51;2.33;;;1.63;;
26686;SDS011;14298;50.900;4.648;2023-04-25T09:06:19;1.70;;;0.93;;
26686;SDS011;14298;50.900;4.648;2023-04-25T09:08:49;1.80;;;1.37;;
26686;SDS011;14298;50.900;4.648;2023-04-25T09:11:17;9.43;;;0.97;;
26686;SDS011;14298;50.900;4.648;2023-04-25T09:13:45;0.60;;;0.60;;
26686;SDS011;14298;50.900;4.648;2023-04-25T09:16:13;3.20;;;1.33;;
26686;SDS011;14298;50.900;4.648;2023-04-25T09:18:42;1.23;;;1.13;;
26686;SDS011;14298;50.900;4.648;2023-04-25T09:21:11;1.43;;;0.60;;
26686;SDS011;14298;50.900;4.648;2023-04-25T09:23:41;21.90;;;2.00;;
26686;SDS011;14298;50.900;4.648;2023-04-25T09:26:09;2.43;;;1.60;;
26686;SDS011;14298;50.900;4.648;2023-04-25T09:28:37;1.30;;;1.03;;
26686;SDS011;14298;50.900;4.648;2023-04-25T09:31:05;3.40;;;1.80;;
26686;SDS011;14298;50.900;4.648;2023-04-25T09:33:33;1.70;;;1.23;;
26686;SDS011;14298;50.900;4.648;2023-04-25T09:36:12;1.77;;;1.07;;
26686;SDS011;14298;50.900;4.648;2023-04-25T09:38:42;2.33;;;1.00;;
26686;SDS011;14298;50.900;4.648;2023-04-25T09:41:10;2.77;;;1.33;;
26686;SDS011;14298;50.900;4.648;2023-04-25T09:43:39;2.17;;;2.00;;
26686;SDS011;14298;50.900;4.648;2023-04-25T09:46:10;1.70;;;1.53;;
26686;SDS011;14298;50.900;4.648;2023-04-25T09:48:38;0.97;;;0.90;;
26686;SDS011;14298;50.900;4.648;2023-04-25T09:51:07;0.97;;;0.83;;
26686;SDS011;14298;50.900;4.648;2023-04-25T09:53:36;1.07;;;1.03;;
26686;SDS011;14298;50.900;4.648;2023-04-25T09:56:05;3.17;;;0.90;;
26686;SDS011;14298;50.900;4.648;2023-04-25T09:58:34;0.60;;;0.60;;
26686;SDS011;14298;50.900;4.648;2023-04-25T10:01:03;2.20;;;1.17;;
26686;SDS011;14298;50.900;4.648;2023-04-25T10:03:32;0.77;;;0.77;;
26686;SDS011;14298;50.900;4.648;2023-04-25T10:06:01;1.80;;;0.90;;
26686;SDS011;14298;50.900;4.648;2023-04-25T10:08:33;2.53;;;1.40;;
26686;SDS011;14298;50.900;4.648;2023-04-25T10:11:02;1.00;;;0.70;;
26686;SDS011;14298;50.900;4.648;2023-04-25T10:13:31;1.33;;;0.77;;
26686;SDS011;14298;50.900;4.648;2023-04-25T10:16:00;0.77;;;0.60;;
26686;SDS011;14298;50.900;4.648;2023-04-25T10:18:28;1.30;;;0.87;;
26686;SDS011;14298;50.900;4.648;2023-04-25T10:21:00;1.07;;;0.97;;
26686;SDS011;14298;50.900;4.648;2023-04-25T10:23:29;1.50;;;1.00;;
26686;SDS011;14298;50.900;4.648;2023-04-25T10:25:58;2.10;;;0.60;;
26686;SDS011;14298;50.900;4.648;2023-04-25T10:28:26;0.47;;;0.47;;
26686;SDS011;14298;50.900;4.648;2023-04-25T10:31:02;0.70;;;0.70;;
26686;SDS011;14298;50.900;4.648;2023-04-25T10:33:37;0.63;;;0.63;;
26686;SDS011;14298;50.900;4.648;2023-04-25T10:36:14;2.00;;;0.70;;
26686;SDS011;14298;50.900;4.648;2023-04-25T10:38:38;6.70;;;0.80;;
26686;SDS011;14298;50.900;4.648;2023-04-25T10:41:07;1.37;;;0.90;;
26686;SDS011;14298;50.900;4.648;2023-04-25T10:43:43;0.73;;;0.73;;
26686;SDS011;14298;50.900;4.648;2023-04-25T10:46:15;1.30;;;1.20;;
26686;SDS011;14298;50.900;4.648;2023-04-25T10:48:54;1.07;;;0.70;;
26686;SDS011;14298;50.900;4.648;2023-04-25T10:51:30;2.00;;;1.17;;
26686;SDS011;14298;50.900;4.648;2023-04-25T10:54:05;0.60;;;0.60;;
26686;SDS011;14298;50.900;4.648;2023-04-25T10:59:05;0.70;;;0.70;;
26686;SDS011;14298;50.900;4.648;2023-04-25T11:01:38;2.63;;;0.77;;
26686;SDS011;14298;50.900;4.648;2023-04-25T11:04:18;0.70;;;0.70;;
26686;SDS011;14298;50.900;4.648;2023-04-25T11:06:58;0.60;;;0.50;;
26686;SDS011;14298;50.900;4.648;2023-04-25T11:09:24;0.50;;;0.50;;
26686;SDS011;14298;50.900;4.648;2023-04-25T11:11:58;2.93;;;1.30;;
26686;SDS011;14298;50.900;4.648;2023-04-25T11:14:22;2.73;;;1.33;;
26686;SDS011;14298;50.900;4.648;2023-04-25T11:16:54;1.30;;;1.20;;
26686;SDS011;14298;50.900;4.648;2023-04-25T11:19:25;0.50;;;0.50;;
26686;SDS011;14298;50.900;4.648;2023-04-25T11:21:57;3.20;;;0.80;;
26686;SDS011;14298;50.900;4.648;2023-04-25T11:24:27;1.10;;;1.03;;
26686;SDS011;14298;50.900;4.648;2023-04-25T11:26:55;0.73;;;0.73;;
26686;SDS011;14298;50.900;4.648;2023-04-25T11:29:23;0.70;;;0.70;;
26686;SDS011;14298;50.900;4.648;2023-04-25T11:31:52;2.77;;;1.10;;
26686;SDS011;14298;50.900;4.648;2023-04-25T11:34:20;4.27;;;0.83;;
26686;SDS011;14298;50.900;4.648;2023-04-25T11:36:49;0.63;;;0.63;;
26686;SDS011;14298;50.900;4.648;2023-04-25T11:39:17;2.10;;;1.27;;
26686;SDS011;14298;50.900;4.648;2023-04-25T11:41:46;4.50;;;0.77;;
26686;SDS011;14298;50.900;4.648;2023-04-25T11:44:17;0.40;;;0.40;;
26686;SDS011;14298;50.900;4.648;2023-04-25T11:46:45;0.90;;;0.90;;
26686;SDS011;14298;50.900;4.648;2023-04-25T11:49:14;0.93;;;0.80;;
26686;SDS011;14298;50.900;4.648;2023-04-25T11:51:47;1.27;;;1.17;;
26686;SDS011;14298;50.900;4.648;2023-04-25T11:54:12;0.77;;;0.77;;
26686;SDS011;14298;50.900;4.648;2023-04-25T11:56:41;1.00;;;0.77;;
26686;SDS011;14298;50.900;4.648;2023-04-25T11:59:09;2.77;;;1.37;;
26686;SDS011;14298;50.900;4.648;2023-04-25T12:01:39;0.60;;;0.60;;
26686;SDS011;14298;50.900;4.648;2023-04-25T12:04:25;3.10;;;0.70;;
26686;SDS011;14298;50.900;4.648;2023-04-25T12:06:40;0.93;;;0.93;;
26686;SDS011;14298;50.900;4.648;2023-04-25T12:09:08;0.87;;;0.87;;
26686;SDS011;14298;50.900;4.648;2023-04-25T12:11:41;2.93;;;1.03;;
26686;SDS011;14298;50.900;4.648;2023-04-25T12:14:11;1.40;;;1.20;;
26686;SDS011;14298;50.900;4.648;2023-04-25T12:16:40;0.83;;;0.70;;
26686;SDS011;14298;50.900;4.648;2023-04-25T12:19:08;1.57;;;1.00;;
26686;SDS011;14298;50.900;4.648;2023-04-25T12:21:37;1.90;;;0.80;;
26686;SDS011;14298;50.900;4.648;2023-04-25T12:24:14;2.67;;;1.47;;
26686;SDS011;14298;50.900;4.648;2023-04-25T12:26:54;0.73;;;0.73;;
26686;SDS011;14298;50.900;4.648;2023-04-25T12:29:23;1.70;;;0.80;;
26686;SDS011;14298;50.900;4.648;2023-04-25T12:31:52;0.77;;;0.60;;
26686;SDS011;14298;50.900;4.648;2023-04-25T12:34:21;2.03;;;1.23;;
26686;SDS011;14298;50.900;4.648;2023-04-25T12:36:49;1.13;;;1.03;;
26686;SDS011;14298;50.900;4.648;2023-04-25T12:39:18;0.93;;;0.50;;
26686;SDS011;14298;50.900;4.648;2023-04-25T12:41:46;0.37;;;0.37;;
26686;SDS011;14298;50.900;4.648;2023-04-25T12:44:14;0.70;;;0.70;;
26686;SDS011;14298;50.900;4.648;2023-04-25T12:46:43;1.10;;;0.70;;
26686;SDS011;14298;50.900;4.648;2023-04-25T12:49:11;0.83;;;0.63;;
26686;SDS011;14298;50.900;4.648;2023-04-25T12:51:39;0.50;;;0.50;;
26686;SDS011;14298;50.900;4.648;2023-04-25T12:54:08;0.57;;;0.57;;
26686;SDS011;14298;50.900;4.648;2023-04-25T12:56:36;0.73;;;0.70;;
26686;SDS011;14298;50.900;4.648;2023-04-25T12:59:04;2.90;;;0.50;;
26686;SDS011;14298;50.900;4.648;2023-04-25T13:01:32;1.50;;;0.97;;
26686;SDS011;14298;50.900;4.648;2023-04-25T13:04:01;1.83;;;0.60;;
26686;SDS011;14298;50.900;4.648;2023-04-25T13:06:29;0.70;;;0.70;;
26686;SDS011;14298;50.900;4.648;2023-04-25T13:08:59;0.30;;;0.30;;
26686;SDS011;14298;50.900;4.648;2023-04-25T13:11:27;0.53;;;0.53;;
26686;SDS011;14298;50.900;4.648;2023-04-25T13:13:55;0.60;;;0.60;;
26686;SDS011;14298;50.900;4.648;2023-04-25T13:16:23;0.47;;;0.47;;
26686;SDS011;14298;50.900;4.648;2023-04-25T13:18:51;0.67;;;0.67;;
26686;SDS011;14298;50.900;4.648;2023-04-25T13:21:19;0.53;;;0.53;;
26686;SDS011;14298;50.900;4.648;2023-04-25T13:23:47;0.57;;;0.57;;
26686;SDS011;14298;50.900;4.648;2023-04-25T13:26:15;4.63;;;1.00;;
26686;SDS011;14298;50.900;4.648;2023-04-25T13:28:43;3.90;;;1.13;;
26686;SDS011;14298;50.900;4.648;2023-04-25T13:31:11;2.47;;;1.50;;
26686;SDS011;14298;50.900;4.648;2023-04-25T13:33:39;0.77;;;0.60;;
26686;SDS011;14298;50.900;4.648;2023-04-25T13:36:07;0.43;;;0.43;;
26686;SDS011;14298;50.900;4.648;2023-04-25T13:38:35;1.27;;;1.17;;
26686;SDS011;14298;50.900;4.648;2023-04-25T13:41:03;0.93;;;0.73;;
26686;SDS011;14298;50.900;4.648;2023-04-25T13:43:33;0.50;;;0.50;;
26686;SDS011;14298;50.900;4.648;2023-04-25T13:46:01;0.70;;;0.70;;
26686;SDS011;14298;50.900;4.648;2023-04-25T13:48:29;0.40;;;0.40;;
26686;SDS011;14298;50.900;4.648;2023-04-25T13:50:57;1.83;;;0.63;;
26686;SDS011;14298;50.900;4.648;2023-04-25T13:53:25;0.50;;;0.50;;
26686;SDS011;14298;50.900;4.648;2023-04-25T13:55:53;0.43;;;0.43;;
26686;SDS011;14298;50.900;4.648;2023-04-25T13:58:21;0.33;;;0.33;;
26686;SDS011;14298;50.900;4.648;2023-04-25T14:00:49;1.27;;;0.67;;
26686;SDS011;14298;50.900;4.648;2023-04-25T14:03:17;1.80;;;1.03;;
26686;SDS011;14298;50.900;4.648;2023-04-25T14:05:45;0.50;;;0.47;;
26686;SDS011;14298;50.900;4.648;2023-04-25T14:08:13;0.77;;;0.77;;
26686;SDS011;14298;50.900;4.648;2023-04-25T14:10:41;0.70;;;0.50;;
26686;SDS011;14298;50.900;4.648;2023-04-25T14:13:09;0.90;;;0.40;;
26686;SDS011;14298;50.900;4.648;2023-04-25T14:15:38;0.53;;;0.53;;
26686;SDS011;14298;50.900;4.648;2023-04-25T14:18:06;0.50;;;0.50;;
26686;SDS011;14298;50.900;4.648;2023-04-25T14:20:34;0.40;;;0.40;;
26686;SDS011;14298;50.900;4.648;2023-04-25T14:23:02;0.57;;;0.57;;
26686;SDS011;14298;50.900;4.648;2023-04-25T14:25:30;5.70;;;0.93;;
26686;SDS011;14298;50.900;4.648;2023-04-25T14:27:58;1.23;;;0.67;;
26686;SDS011;14298;50.900;4.648;2023-04-25T14:30:26;0.93;;;0.70;;
26686;SDS011;14298;50.900;4.648;2023-04-25T14:32:54;1.20;;;0.73;;
26686;SDS011;14298;50.900;4.648;2023-04-25T14:35:22;0.70;;;0.70;;
26686;SDS011;14298;50.900;4.648;2023-04-25T14:37:50;0.30;;;0.30;;
26686;SDS011;14298;50.900;4.648;2023-04-25T14:40:18;1.03;;;0.93;;
26686;SDS011;14298;50.900;4.648;2023-04-25T14:42:48;0.50;;;0.50;;
26686;SDS011;14298;50.900;4.648;2023-04-25T14:45:18;1.03;;;0.93;;
26686;SDS011;14298;50.900;4.648;2023-04-25T14:47:46;0.70;;;0.67;;
26686;SDS011;14298;50.900;4.648;2023-04-25T14:50:14;0.50;;;0.50;;
26686;SDS011;14298;50.900;4.648;2023-04-25T14:52:42;4.40;;;1.20;;
26686;SDS011;14298;50.900;4.648;2023-04-25T14:55:11;1.97;;;0.80;;
26686;SDS011;14298;50.900;4.648;2023-04-25T14:57:39;3.20;;;0.57;;
26686;SDS011;14298;50.900;4.648;2023-04-25T15:00:07;0.60;;;0.60;;
26686;SDS011;14298;50.900;4.648;2023-04-25T15:02:36;0.97;;;0.67;;
26686;SDS011;14298;50.900;4.648;2023-04-25T15:05:04;0.60;;;0.60;;